createdAt,value
2023-02-16T00:01:17.916Z,4.03
2023-02-16T00:03:22.342Z,4.01
2023-02-16T00:05:26.719Z,4.01
2023-02-16T00:07:28.568Z,4.02
2023-02-16T00:09:31.579Z,4.02
2023-02-16T00:11:35.388Z,4.02
2023-02-16T00:13:38.525Z,4.00
2023-02-16T00:15:43.620Z,4.00
2023-02-16T00:17:45.250Z,4.00
2023-02-16T00:19:46.919Z,3.98
2023-02-16T00:21:50.208Z,4.00
2023-02-16T00:23:52.265Z,3.99
2023-02-16T00:25:53.842Z,3.98
2023-02-16T00:27:55.690Z,3.98
2023-02-16T00:29:58.891Z,4.00
2023-02-16T00:32:02.127Z,3.99
2023-02-16T00:34:24.945Z,4.01
2023-02-16T00:36:26.484Z,3.99
2023-02-16T00:38:28.115Z,4.00
2023-02-16T00:40:29.736Z,3.97
2023-02-16T00:42:34.099Z,3.96
2023-02-16T00:44:38.366Z,3.96
2023-02-16T00:46:41.623Z,3.96
2023-02-16T00:48:45.192Z,3.95
2023-02-16T00:50:47.424Z,3.95
2023-02-16T00:52:49.589Z,3.95
2023-02-16T00:54:51.141Z,3.92
2023-02-16T00:56:53.280Z,3.93
2023-02-16T00:58:54.905Z,3.93
2023-02-16T01:01:03.157Z,3.92
2023-02-16T01:03:14.373Z,3.93
2023-02-16T01:05:17.014Z,3.92
2023-02-16T01:07:20.194Z,3.91
2023-02-16T01:09:21.871Z,3.92
2023-02-16T01:11:24.212Z,3.90
2023-02-16T01:13:29.341Z,3.92
2023-02-16T01:15:31.149Z,3.92
2023-02-16T01:17:33.056Z,3.93
2023-02-16T01:19:36.429Z,3.93
2023-02-16T01:21:38.424Z,3.93
2023-02-16T01:23:40.325Z,3.93
2023-02-16T01:25:42.994Z,3.94
2023-02-16T01:27:45.032Z,3.93
2023-02-16T01:29:46.606Z,3.92
2023-02-16T01:31:49.262Z,3.92
2023-02-16T01:33:51.054Z,3.89
2023-02-16T01:35:56.482Z,3.89
2023-02-16T01:37:58.494Z,3.88
2023-02-16T01:40:00.070Z,3.86
2023-02-16T01:42:17.050Z,3.86
2023-02-16T01:44:24.617Z,3.83
2023-02-16T01:46:36.660Z,3.83
2023-02-16T01:48:38.405Z,3.81
2023-02-16T01:50:45.963Z,3.79
2023-02-16T01:52:55.538Z,3.77
2023-02-16T01:55:04.505Z,3.75
2023-02-16T01:57:21.109Z,3.74
2023-02-16T01:59:37.100Z,3.72
2023-02-16T02:01:47.308Z,3.69
2023-02-16T02:03:48.988Z,3.66
2023-02-16T02:05:51.703Z,3.64
2023-02-16T02:07:59.441Z,3.61
2023-02-16T02:10:07.112Z,3.61
2023-02-16T02:12:16.978Z,3.60
2023-02-16T02:14:24.271Z,3.58
2023-02-16T02:16:27.799Z,3.56
2023-02-16T02:18:29.748Z,3.52
2023-02-16T02:20:48.945Z,3.54
2023-02-16T02:23:16.374Z,3.55
2023-02-16T02:25:41.630Z,3.53
2023-02-16T02:27:53.810Z,3.52
2023-02-16T02:30:19.009Z,3.51
2023-02-16T02:32:33.477Z,3.49
2023-02-16T02:34:49.212Z,3.46
2023-02-16T02:37:01.364Z,3.44
2023-02-16T02:39:15.646Z,3.43
2023-02-16T02:41:24.368Z,3.40
2023-02-16T02:43:35.353Z,3.40
2023-02-16T02:45:42.774Z,3.38
2023-02-16T02:47:46.942Z,3.35
2023-02-16T02:49:51.062Z,3.33
2023-02-16T02:51:52.802Z,3.30
2023-02-16T02:54:00.119Z,3.26
2023-02-16T02:56:04.475Z,3.25
2023-02-16T02:58:07.076Z,3.22
2023-02-16T03:00:15.067Z,3.17
2023-02-16T03:02:18.052Z,3.15
2023-02-16T03:04:24.996Z,3.13
2023-02-16T03:06:31.112Z,3.11
2023-02-16T03:08:36.108Z,3.09
2023-02-16T03:10:38.387Z,3.08
2023-02-16T03:12:40.539Z,3.07
2023-02-16T03:14:46.488Z,3.06
2023-02-16T03:16:53.480Z,3.06
2023-02-16T03:18:56.859Z,3.05
2023-02-16T03:20:59.019Z,3.06
2023-02-16T03:23:03.333Z,3.04
2023-02-16T03:25:05.700Z,3.06
2023-02-16T03:27:09.493Z,3.05
2023-02-16T03:29:13.426Z,3.04
2023-02-16T03:31:19.027Z,3.04
2023-02-16T03:33:23.491Z,3.04
2023-02-16T03:35:26.052Z,3.02
2023-02-16T03:37:28.072Z,3.01
2023-02-16T03:39:31.257Z,2.99
2023-02-16T03:41:35.057Z,2.97
2023-02-16T03:43:36.840Z,2.94
2023-02-16T03:45:41.200Z,2.93
2023-02-16T03:47:42.909Z,2.90
2023-02-16T03:49:45.865Z,2.89
2023-02-16T03:51:47.885Z,2.85
2023-02-16T03:53:50.058Z,2.85
2023-02-16T03:55:52.130Z,2.81
2023-02-16T03:57:53.966Z,2.82
2023-02-16T03:59:56.702Z,2.79
2023-02-16T04:01:59.459Z,2.79
2023-02-16T04:04:01.143Z,2.77
2023-02-16T04:06:05.762Z,2.74
2023-02-16T04:08:09.162Z,2.74
2023-02-16T04:10:11.008Z,2.73
2023-02-16T04:12:13.170Z,2.69
2023-02-16T04:14:14.966Z,2.69
2023-02-16T04:16:16.869Z,2.67
2023-02-16T04:18:18.555Z,2.66
2023-02-16T04:20:22.027Z,2.65
2023-02-16T04:22:25.185Z,2.65
2023-02-16T04:24:27.304Z,2.64
2023-02-16T04:26:28.960Z,2.62
2023-02-16T04:28:30.884Z,2.62
2023-02-16T04:30:32.663Z,2.59
2023-02-16T04:32:34.699Z,2.57
2023-02-16T04:34:36.350Z,2.57
2023-02-16T04:36:38.077Z,2.55
2023-02-16T04:38:41.090Z,2.53
2023-02-16T04:40:42.687Z,2.50
2023-02-16T04:42:45.311Z,2.50
2023-02-16T04:44:46.960Z,2.49
2023-02-16T04:46:48.914Z,2.48
2023-02-16T04:48:50.742Z,2.47
2023-02-16T04:50:52.661Z,2.45
2023-02-16T04:52:54.364Z,2.45
2023-02-16T04:54:57.372Z,2.45
2023-02-16T04:56:59.754Z,2.44
2023-02-16T04:59:01.409Z,2.43
2023-02-16T05:01:04.885Z,2.45
2023-02-16T05:03:06.672Z,2.44
2023-02-16T05:05:09.379Z,2.42
2023-02-16T05:07:10.954Z,2.44
2023-02-16T05:09:12.612Z,2.44
2023-02-16T05:11:15.663Z,2.45
2023-02-16T05:13:17.286Z,2.42
2023-02-16T05:15:19.187Z,2.43
2023-02-16T05:17:23.724Z,2.42
2023-02-16T05:19:25.318Z,2.41
2023-02-16T05:21:26.867Z,2.41
2023-02-16T05:23:28.552Z,2.40
2023-02-16T05:25:30.118Z,2.41
2023-02-16T05:27:33.330Z,2.41
2023-02-16T05:29:35.098Z,2.38
2023-02-16T05:31:36.938Z,2.38
2023-02-16T05:33:38.610Z,2.38
2023-02-16T05:35:40.508Z,2.37
2023-02-16T05:37:42.817Z,2.36
2023-02-16T05:39:45.052Z,2.35
2023-02-16T05:41:46.917Z,2.35
2023-02-16T05:43:50.877Z,2.34
2023-02-16T05:45:52.580Z,2.35
2023-02-16T05:47:54.447Z,2.33
2023-02-16T05:49:56.104Z,2.32
2023-02-16T05:51:57.899Z,2.33
2023-02-16T05:53:59.712Z,2.32
2023-02-16T05:56:01.372Z,2.32
2023-02-16T05:58:03.041Z,2.31
2023-02-16T06:00:07.857Z,2.32
2023-02-16T06:02:09.793Z,2.31
2023-02-16T06:04:12.866Z,2.31
2023-02-16T06:06:14.756Z,2.31
2023-02-16T06:08:16.428Z,2.30
2023-02-16T06:10:18.351Z,2.30
2023-02-16T06:12:19.999Z,2.29
2023-02-16T06:14:21.561Z,2.28
2023-02-16T06:16:25.552Z,2.29
2023-02-16T06:18:27.267Z,2.29
2023-02-16T06:20:28.978Z,2.29
2023-02-16T06:22:30.699Z,2.27
2023-02-16T06:24:32.527Z,2.29
2023-02-16T06:26:34.413Z,2.29
2023-02-16T06:28:36.103Z,2.28
2023-02-16T06:30:38.182Z,2.29
2023-02-16T06:32:42.376Z,2.30
2023-02-16T06:34:44.037Z,2.30
2023-02-16T06:36:45.778Z,2.29
2023-02-16T06:38:47.738Z,2.30
2023-02-16T06:40:51.827Z,2.30
2023-02-16T06:42:53.462Z,2.29
2023-02-16T06:44:55.317Z,2.28
2023-02-16T06:46:56.912Z,2.29
2023-02-16T06:49:00.412Z,2.30
2023-02-16T06:51:02.583Z,2.30
2023-02-16T06:53:04.910Z,2.29
2023-02-16T06:55:07.676Z,2.31
2023-02-16T06:57:09.368Z,2.30
2023-02-16T06:59:11.812Z,2.32
2023-02-16T07:01:13.698Z,2.30
2023-02-16T07:03:15.632Z,2.30
2023-02-16T07:05:18.905Z,2.31
2023-02-16T07:07:21.006Z,2.32
2023-02-16T07:09:22.802Z,2.35
2023-02-16T07:11:24.477Z,2.36
2023-02-16T07:13:26.110Z,2.36
2023-02-16T07:15:27.756Z,2.39
2023-02-16T07:17:29.536Z,2.41
2023-02-16T07:19:31.891Z,2.43
2023-02-16T07:21:34.891Z,2.45
2023-02-16T07:23:36.460Z,2.47
2023-02-16T07:25:38.266Z,2.48
2023-02-16T07:27:39.841Z,2.52
2023-02-16T07:29:41.770Z,2.53
2023-02-16T07:31:43.475Z,2.57
2023-02-16T07:33:45.461Z,2.59
2023-02-16T07:35:47.498Z,2.61
2023-02-16T07:37:51.142Z,2.64
2023-02-16T07:39:52.739Z,2.67
2023-02-16T07:41:54.360Z,2.71
2023-02-16T07:43:55.939Z,2.73
2023-02-16T07:45:57.610Z,2.76
2023-02-16T07:47:59.788Z,2.81
2023-02-16T07:50:02.057Z,2.89
2023-02-16T07:52:03.810Z,2.95
2023-02-16T07:54:07.587Z,3.04
2023-02-16T07:56:09.500Z,3.19
2023-02-16T07:58:11.566Z,3.27
2023-02-16T08:00:14.416Z,3.39
2023-02-16T08:02:17.023Z,3.54
2023-02-16T08:04:18.754Z,3.65
2023-02-16T08:06:20.719Z,3.75
2023-02-16T08:08:22.461Z,3.87
2023-02-16T08:10:25.594Z,3.92
2023-02-16T08:12:27.483Z,3.97
2023-02-16T08:14:29.442Z,4.03
2023-02-16T08:16:31.440Z,4.04
2023-02-16T08:18:33.324Z,4.10
2023-02-16T08:20:53.875Z,4.18
2023-02-16T08:22:56.762Z,4.23
2023-02-16T08:24:58.928Z,4.26
2023-02-16T08:27:02.932Z,4.33
2023-02-16T08:29:06.067Z,4.38
2023-02-16T08:31:07.659Z,4.46
2023-02-16T08:33:09.260Z,4.53
2023-02-16T08:35:11.079Z,4.61
2023-02-16T08:37:13.412Z,4.69
2023-02-16T08:39:17.172Z,4.75
2023-02-16T08:41:19.775Z,4.85
2023-02-16T08:43:22.947Z,4.90
2023-02-16T08:45:24.520Z,4.97
2023-02-16T08:47:26.037Z,5.05
2023-02-16T08:49:28.029Z,5.11
2023-02-16T08:51:31.465Z,5.17
2023-02-16T08:53:33.260Z,5.20
2023-02-16T08:55:34.957Z,5.25
2023-02-16T08:57:36.650Z,5.30
2023-02-16T08:59:39.856Z,5.36
2023-02-16T09:01:41.548Z,5.44
2023-02-16T09:03:45.218Z,5.49
2023-02-16T09:05:47.123Z,5.57
2023-02-16T09:07:49.079Z,5.65
2023-02-16T09:09:50.938Z,5.75
2023-02-16T09:11:52.661Z,5.83
2023-02-16T09:13:54.398Z,5.85
2023-02-16T09:16:02.641Z,5.95
2023-02-16T09:18:04.709Z,6.00
2023-02-16T09:20:07.463Z,6.05
2023-02-16T09:22:09.052Z,6.11
2023-02-16T09:24:10.901Z,6.16
2023-02-16T09:26:12.670Z,6.25
2023-02-16T09:28:14.201Z,6.34
2023-02-16T09:30:16.060Z,6.45
2023-02-16T09:32:19.631Z,6.55
2023-02-16T09:34:23.202Z,6.66
2023-02-16T09:36:25.139Z,6.77
2023-02-16T09:38:26.746Z,6.89
2023-02-16T09:40:28.762Z,7.00
2023-02-16T09:42:41.294Z,7.15
2023-02-16T09:44:50.854Z,7.30
2023-02-16T09:46:56.481Z,7.43
2023-02-16T09:49:03.185Z,7.56
2023-02-16T09:51:06.844Z,7.66
2023-02-16T09:53:16.046Z,7.81
2023-02-16T09:55:19.894Z,7.95
2023-02-16T09:57:38.845Z,8.07
2023-02-16T09:59:49.092Z,8.17
2023-02-16T10:01:58.788Z,8.25
2023-02-16T10:04:28.158Z,8.37
2023-02-16T10:06:41.275Z,8.47
2023-02-16T10:08:47.236Z,8.53
2023-02-16T10:10:53.669Z,8.65
2023-02-16T10:13:00.153Z,8.74
2023-02-16T10:15:07.342Z,8.84
2023-02-16T10:17:17.440Z,8.96
2023-02-16T10:19:25.883Z,9.05
2023-02-16T10:21:29.918Z,9.13
2023-02-16T10:23:40.330Z,9.24
2023-02-16T10:25:48.047Z,9.35
2023-02-16T10:28:01.301Z,9.47
2023-02-16T10:30:03.061Z,9.58
2023-02-16T10:32:15.781Z,9.73
2023-02-16T10:34:23.288Z,9.85
2023-02-16T10:36:43.503Z,9.99
2023-02-16T10:38:52.325Z,10.10
2023-02-16T10:41:01.626Z,10.24
2023-02-16T10:43:11.726Z,10.36
2023-02-16T10:45:25.235Z,10.44
2023-02-16T10:47:37.377Z,10.50
2023-02-16T10:49:40.806Z,10.54
2023-02-16T10:51:48.089Z,10.58
2023-02-16T10:53:53.027Z,10.64
2023-02-16T10:55:57.158Z,10.64
2023-02-16T10:58:02.227Z,10.66
2023-02-16T11:00:08.440Z,10.70
2023-02-16T11:02:19.076Z,10.75
2023-02-16T11:04:38.008Z,10.84
2023-02-16T11:06:41.217Z,10.87
2023-02-16T11:08:48.549Z,10.94
2023-02-16T11:10:52.571Z,10.98
2023-02-16T11:12:56.718Z,11.05
2023-02-16T11:15:02.267Z,11.12
2023-02-16T11:17:08.216Z,11.17
2023-02-16T11:19:21.892Z,11.25
2023-02-16T11:21:44.799Z,11.33
2023-02-16T11:23:59.202Z,11.39
2023-02-16T11:26:04.599Z,11.44
2023-02-16T11:28:06.601Z,11.52
2023-02-16T11:30:17.752Z,11.58
2023-02-16T11:32:21.028Z,11.65
2023-02-16T11:34:32.267Z,11.70
2023-02-16T11:36:37.380Z,11.68
2023-02-16T11:38:40.610Z,11.68
2023-02-16T11:40:52.221Z,11.69
2023-02-16T11:42:56.511Z,11.69
2023-02-16T11:45:00.434Z,11.71
2023-02-16T11:47:04.975Z,11.74
2023-02-16T11:49:30.392Z,11.90
2023-02-16T11:51:34.930Z,11.96
2023-02-16T11:53:38.951Z,12.00
2023-02-16T11:55:45.061Z,12.06
2023-02-16T11:57:46.688Z,12.07
2023-02-16T11:59:48.307Z,12.06
2023-02-16T12:02:08.196Z,12.02
2023-02-16T12:04:30.137Z,12.00
2023-02-16T12:06:46.885Z,11.96
2023-02-16T12:09:03.032Z,11.92
2023-02-16T12:11:15.572Z,11.87
2023-02-16T12:13:25.574Z,11.85
2023-02-16T12:15:32.810Z,11.83
2023-02-16T12:17:49.300Z,11.81
2023-02-16T12:20:00.840Z,11.79
2023-02-16T12:22:16.261Z,11.77
2023-02-16T12:24:32.001Z,11.77
2023-02-16T12:26:44.850Z,11.77
2023-02-16T12:28:53.997Z,11.73
2023-02-16T12:31:07.192Z,11.69
2023-02-16T12:33:33.026Z,11.66
2023-02-16T12:35:50.358Z,11.63
2023-02-16T12:38:02.083Z,11.59
2023-02-16T12:40:20.245Z,11.55
2023-02-16T12:42:47.464Z,11.52
2023-02-16T12:44:53.824Z,11.48
2023-02-16T12:47:01.781Z,11.43
2023-02-16T12:49:15.171Z,11.39
2023-02-16T12:51:20.994Z,11.35
2023-02-16T12:53:27.370Z,11.33
2023-02-16T12:55:35.631Z,11.32
2023-02-16T12:57:44.197Z,11.28
2023-02-16T12:59:51.789Z,11.27
2023-02-16T13:01:56.496Z,11.21
2023-02-16T13:04:04.825Z,11.20
2023-02-16T13:06:15.410Z,11.17
2023-02-16T13:08:25.351Z,11.15
2023-02-16T13:10:33.874Z,11.16
2023-02-16T13:12:41.988Z,11.13
2023-02-16T13:14:54.098Z,11.11
2023-02-16T13:16:59.847Z,11.11
2023-02-16T13:19:01.862Z,11.08
2023-02-16T13:21:09.989Z,11.06
2023-02-16T13:23:41.844Z,11.09
2023-02-16T13:26:01.401Z,11.04
2023-02-16T13:28:16.285Z,11.02
2023-02-16T13:31:00.021Z,11.02
2023-02-16T13:33:16.043Z,11.01
2023-02-16T13:35:56.510Z,10.99
2023-02-16T13:38:05.358Z,10.95
2023-02-16T13:40:43.902Z,10.95
2023-02-16T13:43:08.598Z,10.94
2023-02-16T13:45:17.795Z,10.88
2023-02-16T13:47:27.710Z,10.85
2023-02-16T13:49:33.560Z,10.85
2023-02-16T13:51:46.504Z,10.83
2023-02-16T13:53:56.413Z,10.80
2023-02-16T13:56:20.199Z,10.80
2023-02-16T13:58:31.273Z,10.78
2023-02-16T14:00:37.044Z,10.70
2023-02-16T14:02:54.841Z,10.70
2023-02-16T14:05:09.618Z,10.65
2023-02-16T14:07:31.312Z,10.63
2023-02-16T14:09:45.875Z,10.58
2023-02-16T14:12:13.398Z,10.57
2023-02-16T14:14:27.272Z,10.53
2023-02-16T14:16:34.092Z,10.49
2023-02-16T14:18:42.761Z,10.46
2023-02-16T14:20:44.508Z,10.44
2023-02-16T14:22:50.998Z,10.41
2023-02-16T14:24:54.997Z,10.40
2023-02-16T14:26:58.676Z,10.37
2023-02-16T14:29:10.781Z,10.39
2023-02-16T14:31:18.113Z,10.37
2023-02-16T14:33:24.006Z,10.39
2023-02-16T14:35:31.713Z,10.36
2023-02-16T14:37:39.603Z,10.38
2023-02-16T14:39:58.567Z,10.37
2023-02-16T14:42:08.400Z,10.37
2023-02-16T14:44:32.313Z,10.38
2023-02-16T14:46:47.357Z,10.34
2023-02-16T14:49:29.025Z,10.35
2023-02-16T14:51:56.906Z,10.34
2023-02-16T14:54:19.723Z,10.27
2023-02-16T14:56:40.949Z,10.27
2023-02-16T14:58:51.925Z,10.23
2023-02-16T15:01:02.928Z,10.22
2023-02-16T15:03:17.318Z,10.17
2023-02-16T15:05:21.709Z,10.15
2023-02-16T15:07:27.395Z,10.13
2023-02-16T15:09:31.511Z,10.09
2023-02-16T15:11:35.716Z,10.07
2023-02-16T15:13:37.786Z,10.06
2023-02-16T15:15:44.215Z,10.04
2023-02-16T15:17:47.602Z,10.01
2023-02-16T15:19:52.493Z,10.01
2023-02-16T15:22:08.072Z,9.99
2023-02-16T15:24:22.001Z,9.99
2023-02-16T15:26:26.036Z,9.96
2023-02-16T15:28:30.531Z,9.94
2023-02-16T15:30:34.127Z,9.92
2023-02-16T15:32:36.265Z,9.90
2023-02-16T15:34:38.170Z,9.88
2023-02-16T15:36:42.755Z,9.86
2023-02-16T15:38:56.150Z,9.85
2023-02-16T15:41:01.719Z,9.83
2023-02-16T15:43:09.775Z,9.82
2023-02-16T15:45:28.609Z,9.82
2023-02-16T15:47:30.279Z,9.77
2023-02-16T15:49:31.944Z,9.75
2023-02-16T15:51:35.474Z,9.73
2023-02-16T15:53:47.361Z,9.74
2023-02-16T15:55:49.186Z,9.71
2023-02-16T15:57:52.620Z,9.68
2023-02-16T15:59:57.651Z,9.68
2023-02-16T16:02:02.782Z,9.68
2023-02-16T16:04:08.141Z,9.68
2023-02-16T16:06:09.772Z,9.66
2023-02-16T16:08:14.214Z,9.67
2023-02-16T16:10:19.813Z,9.67
2023-02-16T16:12:22.328Z,9.65
2023-02-16T16:14:27.317Z,9.64
2023-02-16T16:16:29.450Z,9.64
2023-02-16T16:18:43.157Z,9.64
2023-02-16T16:20:44.756Z,9.61
2023-02-16T16:22:46.657Z,9.59
2023-02-16T16:24:48.254Z,9.57
2023-02-16T16:26:52.706Z,9.56
2023-02-16T16:28:54.681Z,9.53
2023-02-16T16:31:08.649Z,9.55
2023-02-16T16:33:13.017Z,9.53
2023-02-16T16:35:22.153Z,9.51
2023-02-16T16:37:29.735Z,9.49
2023-02-16T16:39:34.515Z,9.47
2023-02-16T16:41:36.227Z,9.48
2023-02-16T16:43:54.548Z,9.48
2023-02-16T16:46:10.394Z,9.45
2023-02-16T16:48:18.619Z,9.43
2023-02-16T16:50:33.137Z,9.44
2023-02-16T16:52:38.333Z,9.40
2023-02-16T16:54:40.158Z,9.39
2023-02-16T16:56:41.972Z,9.38
2023-02-16T16:58:43.677Z,9.38
2023-02-16T17:00:45.456Z,9.34
2023-02-16T17:02:48.824Z,9.35
2023-02-16T17:04:52.036Z,9.33
2023-02-16T17:06:53.755Z,9.32
2023-02-16T17:08:55.407Z,9.31
2023-02-16T17:10:56.955Z,9.30
2023-02-16T17:13:00.273Z,9.28
2023-02-16T17:15:03.216Z,9.28
2023-02-16T17:17:05.044Z,9.29
2023-02-16T17:19:07.158Z,9.27
2023-02-16T17:21:12.914Z,9.29
2023-02-16T17:23:16.790Z,9.26
2023-02-16T17:25:19.038Z,9.27
2023-02-16T17:27:20.630Z,9.25
2023-02-16T17:29:22.220Z,9.24
2023-02-16T17:31:23.946Z,9.24
2023-02-16T17:33:25.714Z,9.23
2023-02-16T17:35:28.261Z,9.22
2023-02-16T17:37:32.440Z,9.21
2023-02-16T17:39:34.641Z,9.21
2023-02-16T17:41:36.259Z,9.19
2023-02-16T17:43:38.016Z,9.19
2023-02-16T17:45:40.763Z,9.18
2023-02-16T17:47:43.397Z,9.17
2023-02-16T17:49:45.143Z,9.17
2023-02-16T17:51:46.708Z,9.15
2023-02-16T17:53:49.761Z,9.15
2023-02-16T17:55:53.910Z,9.15
2023-02-16T17:57:55.516Z,9.14
2023-02-16T17:59:57.242Z,9.14
2023-02-16T18:01:58.920Z,9.12
2023-02-16T18:04:01.602Z,9.12
2023-02-16T18:06:03.637Z,9.11
2023-02-16T18:08:06.222Z,9.10
2023-02-16T18:10:18.468Z,9.11
2023-02-16T18:12:20.142Z,9.09
2023-02-16T18:14:21.784Z,9.08
2023-02-16T18:16:27.642Z,9.06
2023-02-16T18:18:30.150Z,9.06
2023-02-16T18:20:32.001Z,9.05
2023-02-16T18:22:34.068Z,9.04
2023-02-16T18:24:35.826Z,9.01
2023-02-16T18:26:39.010Z,9.01
2023-02-16T18:28:40.761Z,9.00
2023-02-16T18:30:42.442Z,8.99
2023-02-16T18:32:44.951Z,8.96
2023-02-16T18:34:46.918Z,8.96
2023-02-16T18:36:48.535Z,8.94
2023-02-16T18:38:50.323Z,8.93
2023-02-16T18:40:53.474Z,8.91
2023-02-16T18:42:56.748Z,8.91
2023-02-16T18:44:58.486Z,8.89
2023-02-16T18:47:00.301Z,8.87
2023-02-16T18:49:01.906Z,8.83
2023-02-16T18:51:04.630Z,8.83
2023-02-16T18:53:06.667Z,8.82
2023-02-16T18:55:09.221Z,8.76
2023-02-16T18:57:10.929Z,8.76
2023-02-16T18:59:14.118Z,8.74
2023-02-16T19:01:23.572Z,8.72
2023-02-16T19:03:25.495Z,8.71
2023-02-16T19:05:27.142Z,8.69
2023-02-16T19:07:28.843Z,8.67
2023-02-16T19:09:30.652Z,8.66
2023-02-16T19:11:32.366Z,8.65
2023-02-16T19:13:34.214Z,8.65
2023-02-16T19:15:37.486Z,8.63
2023-02-16T19:17:39.216Z,8.62
2023-02-16T19:19:40.803Z,8.60
2023-02-16T19:21:42.452Z,8.60
2023-02-16T19:23:44.042Z,8.60
2023-02-16T19:25:45.845Z,8.58
2023-02-16T19:27:48.111Z,8.56
2023-02-16T19:29:49.765Z,8.57
2023-02-16T19:31:52.987Z,8.54
2023-02-16T19:33:55.333Z,8.56
2023-02-16T19:36:02.136Z,8.55
2023-02-16T19:38:04.051Z,8.53
2023-02-16T19:40:07.741Z,8.53
2023-02-16T19:42:09.423Z,8.53
2023-02-16T19:44:13.628Z,8.52
2023-02-16T19:46:16.392Z,8.51
2023-02-16T19:48:19.398Z,8.49
2023-02-16T19:50:21.016Z,8.49
2023-02-16T19:52:22.583Z,8.49
2023-02-16T19:54:24.311Z,8.48
2023-02-16T19:56:27.108Z,8.48
2023-02-16T19:58:28.753Z,8.48
2023-02-16T20:00:30.589Z,8.47
2023-02-16T20:02:32.211Z,8.48
2023-02-16T20:04:35.287Z,8.48
2023-02-16T20:06:37.312Z,8.47
2023-02-16T20:08:38.895Z,8.47
2023-02-16T20:10:42.758Z,8.47
2023-02-16T20:12:44.427Z,8.46
2023-02-16T20:14:46.051Z,8.46
2023-02-16T20:16:47.771Z,8.44
2023-02-16T20:18:50.071Z,8.45
2023-02-16T20:20:59.029Z,8.45
2023-02-16T20:23:00.709Z,8.44
2023-02-16T20:25:02.663Z,8.43
2023-02-16T20:27:04.355Z,8.42
2023-02-16T20:29:08.520Z,8.40
2023-02-16T20:31:12.261Z,8.39
2023-02-16T20:33:14.149Z,8.39
2023-02-16T20:35:16.424Z,8.38
2023-02-16T20:37:19.481Z,8.37
2023-02-16T20:39:22.063Z,8.37
2023-02-16T20:41:24.496Z,8.36
2023-02-16T20:43:27.293Z,8.35
2023-02-16T20:45:29.013Z,8.35
2023-02-16T20:47:33.366Z,8.34
2023-02-16T20:49:35.164Z,8.34
2023-02-16T20:51:39.439Z,8.33
2023-02-16T20:53:42.542Z,8.31
2023-02-16T20:55:44.221Z,8.30
2023-02-16T20:57:46.025Z,8.29
2023-02-16T20:59:47.819Z,8.29
2023-02-16T21:01:52.113Z,8.25
2023-02-16T21:03:56.101Z,8.27
2023-02-16T21:05:57.938Z,8.26
2023-02-16T21:07:59.494Z,8.24
2023-02-16T21:10:03.208Z,8.20
2023-02-16T21:12:05.371Z,8.22
2023-02-16T21:14:08.365Z,8.23
2023-02-16T21:16:10.843Z,8.21
2023-02-16T21:18:12.667Z,8.21
2023-02-16T21:20:14.526Z,8.20
2023-02-16T21:22:16.143Z,8.19
2023-02-16T21:24:18.025Z,8.18
2023-02-16T21:26:24.207Z,8.18
2023-02-16T21:28:26.969Z,8.17
2023-02-16T21:30:28.618Z,8.15
2023-02-16T21:32:30.281Z,8.17
2023-02-16T21:34:32.236Z,8.15
2023-02-16T21:36:33.831Z,8.16
2023-02-16T21:38:36.988Z,8.16
2023-02-16T21:40:38.612Z,8.15
2023-02-16T21:42:41.944Z,8.14
2023-02-16T21:44:43.689Z,8.13
2023-02-16T21:46:47.674Z,8.16
2023-02-16T21:48:49.352Z,8.15
2023-02-16T21:50:50.969Z,8.14
2023-02-16T21:52:53.133Z,8.13
2023-02-16T21:54:54.689Z,8.14
2023-02-16T21:56:56.776Z,8.14
2023-02-16T21:58:59.999Z,8.14
2023-02-16T22:01:01.817Z,8.14
2023-02-16T22:03:04.478Z,8.13
2023-02-16T22:05:06.425Z,8.13
2023-02-16T22:07:08.006Z,8.15
2023-02-16T22:09:11.735Z,8.15
2023-02-16T22:11:14.055Z,8.14
2023-02-16T22:13:15.902Z,8.13
2023-02-16T22:15:19.020Z,8.15
2023-02-16T22:17:20.591Z,8.14
2023-02-16T22:19:22.199Z,8.13
2023-02-16T22:21:23.870Z,8.15
2023-02-16T22:23:25.647Z,8.15
2023-02-16T22:25:27.471Z,8.15
2023-02-16T22:27:29.109Z,8.16
2023-02-16T22:29:30.939Z,8.15
2023-02-16T22:31:34.693Z,8.16
2023-02-16T22:33:36.580Z,8.15
2023-02-16T22:35:38.466Z,8.16
2023-02-16T22:37:40.495Z,8.17
2023-02-16T22:39:42.167Z,8.17
2023-02-16T22:41:44.011Z,8.16
2023-02-16T22:43:46.595Z,8.17
2023-02-16T22:45:48.227Z,8.16
2023-02-16T22:47:51.334Z,8.17
2023-02-16T22:49:53.018Z,8.17
2023-02-16T22:51:54.757Z,8.18
2023-02-16T22:53:57.554Z,8.18
2023-02-16T22:55:59.329Z,8.18
2023-02-16T22:58:00.884Z,8.16
2023-02-16T23:00:02.886Z,8.17
2023-02-16T23:02:04.872Z,8.16
2023-02-16T23:04:08.064Z,8.16
2023-02-16T23:06:13.593Z,8.16
2023-02-16T23:08:15.648Z,8.15
2023-02-16T23:10:17.287Z,8.14
2023-02-16T23:12:19.129Z,8.14
2023-02-16T23:14:20.999Z,8.14
2023-02-16T23:16:24.737Z,8.13
2023-02-16T23:18:26.448Z,8.13
2023-02-16T23:20:29.644Z,8.14
2023-02-16T23:22:31.233Z,8.12
2023-02-16T23:24:33.253Z,8.12
2023-02-16T23:26:34.874Z,8.12
2023-02-16T23:28:37.994Z,8.12
2023-02-16T23:30:43.773Z,8.11
2023-02-16T23:32:45.936Z,8.11
2023-02-16T23:34:47.542Z,8.10
2023-02-16T23:36:50.689Z,8.10
2023-02-16T23:38:52.512Z,8.11
2023-02-16T23:40:57.926Z,8.10
2023-02-16T23:42:59.985Z,8.10
2023-02-16T23:45:01.702Z,8.10
2023-02-16T23:47:03.300Z,8.08
2023-02-16T23:49:04.977Z,8.10
2023-02-16T23:51:06.684Z,8.09
2023-02-16T23:53:10.079Z,8.09
2023-02-16T23:55:11.644Z,8.09
2023-02-16T23:57:13.239Z,8.09
2023-02-16T23:59:14.923Z,8.09
